createdAt,value
2023-01-17T00:02:08.904Z,100.00
2023-01-17T00:04:54.652Z,100.00
2023-01-17T00:07:41.803Z,100.00
2023-01-17T00:10:10.445Z,100.00
2023-01-17T00:12:37.716Z,100.00
2023-01-17T00:15:06.083Z,100.00
2023-01-17T00:17:33.139Z,100.00
2023-01-17T00:20:20.147Z,100.00
2023-01-17T00:23:07.002Z,100.00
2023-01-17T00:25:59.011Z,100.00
2023-01-17T00:28:27.482Z,100.00
2023-01-17T00:30:54.417Z,100.00
2023-01-17T00:33:22.640Z,100.00
2023-01-17T00:35:50.074Z,100.00
2023-01-17T00:38:22.301Z,100.00
2023-01-17T00:40:50.189Z,100.00
2023-01-17T00:43:41.285Z,100.00
2023-01-17T00:46:27.195Z,100.00
2023-01-17T00:49:12.776Z,100.00
2023-01-17T00:51:58.143Z,100.00
2023-01-17T00:54:43.554Z,100.00
2023-01-17T00:57:29.092Z,100.00
2023-01-17T01:00:14.728Z,100.00
2023-01-17T01:03:00.374Z,100.00
2023-01-17T01:05:45.930Z,100.00
2023-01-17T01:08:35.736Z,100.00
2023-01-17T01:11:23.769Z,100.00
2023-01-17T01:14:09.531Z,100.00
2023-01-17T01:16:55.366Z,100.00
2023-01-17T01:19:41.026Z,100.00
2023-01-17T01:22:26.482Z,100.00
2023-01-17T01:25:11.703Z,100.00
2023-01-17T01:27:59.012Z,100.00
2023-01-17T01:30:44.893Z,100.00
2023-01-17T01:33:20.670Z,100.00
2023-01-17T01:35:49.392Z,100.00
2023-01-17T01:38:18.155Z,100.00
2023-01-17T01:40:50.446Z,100.00
2023-01-17T01:43:20.784Z,100.00
2023-01-17T01:45:57.341Z,100.00
2023-01-17T01:48:27.337Z,100.00
2023-01-17T01:50:54.608Z,100.00
2023-01-17T01:53:21.968Z,100.00
2023-01-17T01:55:51.205Z,100.00
2023-01-17T01:58:32.189Z,100.00
2023-01-17T02:00:59.321Z,100.00
2023-01-17T02:03:30.165Z,100.00
2023-01-17T02:06:03.716Z,100.00
2023-01-17T02:08:31.454Z,100.00
2023-01-17T02:10:58.704Z,100.00
2023-01-17T02:13:25.653Z,100.00
2023-01-17T02:16:03.311Z,100.00
2023-01-17T02:18:33.122Z,100.00
2023-01-17T02:21:23.329Z,100.00
2023-01-17T02:23:53.060Z,100.00
2023-01-17T02:26:44.813Z,100.00
2023-01-17T02:29:45.745Z,100.00
2023-01-17T02:32:31.362Z,100.00
2023-01-17T02:35:28.337Z,100.00
2023-01-17T02:38:24.537Z,100.00
2023-01-17T02:41:07.119Z,100.00
2023-01-17T02:43:36.353Z,100.00
2023-01-17T02:46:03.849Z,100.00
2023-01-17T02:48:34.344Z,100.00
2023-01-17T02:51:21.679Z,100.00
2023-01-17T02:54:07.265Z,100.00
2023-01-17T02:56:48.918Z,100.00
2023-01-17T02:59:46.678Z,100.00
2023-01-17T03:02:28.586Z,100.00
2023-01-17T03:05:13.876Z,100.00
2023-01-17T03:07:44.488Z,100.00
2023-01-17T03:10:14.954Z,100.00
2023-01-17T03:12:43.221Z,100.00
2023-01-17T03:15:13.079Z,100.00
2023-01-17T03:17:44.400Z,100.00
2023-01-17T03:20:11.214Z,100.00
2023-01-17T03:22:38.055Z,100.00
2023-01-17T03:25:06.178Z,100.00
2023-01-17T03:27:33.418Z,100.00
2023-01-17T03:30:00.304Z,100.00
2023-01-17T03:32:27.343Z,100.00
2023-01-17T03:34:54.269Z,100.00
2023-01-17T03:37:21.099Z,100.00
2023-01-17T03:39:48.036Z,100.00
2023-01-17T03:42:14.980Z,100.00
2023-01-17T03:44:41.785Z,100.00
2023-01-17T03:47:12.155Z,100.00
2023-01-17T03:49:39.880Z,100.00
2023-01-17T03:52:07.625Z,100.00
2023-01-17T03:54:34.536Z,100.00
2023-01-17T03:57:01.713Z,100.00
2023-01-17T03:59:28.615Z,100.00
2023-01-17T04:01:55.483Z,100.00
2023-01-17T04:04:22.727Z,100.00
2023-01-17T04:06:49.613Z,100.00
2023-01-17T04:09:16.493Z,100.00
2023-01-17T04:11:43.312Z,100.00
2023-01-17T04:14:10.172Z,100.00
2023-01-17T04:16:43.566Z,100.00
2023-01-17T04:19:13.300Z,100.00
2023-01-17T04:21:40.248Z,100.00
2023-01-17T04:24:07.435Z,100.00
2023-01-17T04:26:34.535Z,100.00
2023-01-17T04:29:01.450Z,100.00
2023-01-17T04:31:28.352Z,100.00
2023-01-17T04:33:55.346Z,100.00
2023-01-17T04:36:28.075Z,100.00
2023-01-17T04:38:54.984Z,100.00
2023-01-17T04:41:21.865Z,100.00
2023-01-17T04:43:48.698Z,100.00
2023-01-17T04:46:15.899Z,100.00
2023-01-17T04:48:42.778Z,100.00
2023-01-17T04:51:09.857Z,100.00
2023-01-17T04:53:36.821Z,100.00
2023-01-17T04:56:03.786Z,100.00
2023-01-17T04:58:31.498Z,100.00
2023-01-17T05:01:06.299Z,100.00
2023-01-17T05:03:34.386Z,100.00
2023-01-17T05:06:01.792Z,100.00
2023-01-17T05:08:28.811Z,100.00
2023-01-17T05:10:57.185Z,100.00
2023-01-17T05:13:24.118Z,100.00
2023-01-17T05:15:51.026Z,100.00
2023-01-17T05:18:18.820Z,100.00
2023-01-17T05:20:45.857Z,100.00
2023-01-17T05:23:12.996Z,100.00
2023-01-17T05:25:44.546Z,100.00
2023-01-17T05:28:13.014Z,100.00
2023-01-17T05:30:40.575Z,100.00
2023-01-17T05:33:09.458Z,100.00
2023-01-17T05:35:48.951Z,100.00
2023-01-17T05:38:15.830Z,100.00
2023-01-17T05:40:42.775Z,100.00
2023-01-17T05:43:10.069Z,100.00
2023-01-17T05:45:37.138Z,100.00
2023-01-17T05:48:04.831Z,100.00
2023-01-17T05:50:35.903Z,100.00
2023-01-17T05:53:11.475Z,100.00
2023-01-17T05:55:39.336Z,100.00
2023-01-17T05:58:07.713Z,100.00
2023-01-17T06:00:34.900Z,100.00
2023-01-17T06:03:01.793Z,100.00
2023-01-17T06:05:30.159Z,100.00
2023-01-17T06:07:57.581Z,100.00
2023-01-17T06:10:25.537Z,100.00
2023-01-17T06:13:01.989Z,100.00
2023-01-17T06:15:29.829Z,100.00
2023-01-17T06:17:57.012Z,100.00
2023-01-17T06:20:23.871Z,100.00
2023-01-17T06:22:50.883Z,100.00
2023-01-17T06:25:17.745Z,100.00
2023-01-17T06:27:44.728Z,100.00
2023-01-17T06:30:12.248Z,100.00
2023-01-17T06:32:39.198Z,100.00
2023-01-17T06:35:06.496Z,100.00
2023-01-17T06:37:33.474Z,100.00
2023-01-17T06:40:00.443Z,100.00
2023-01-17T06:42:27.352Z,100.00
2023-01-17T06:44:54.231Z,100.00
2023-01-17T06:47:21.257Z,100.00
2023-01-17T06:49:48.083Z,100.00
2023-01-17T06:52:15.139Z,100.00
2023-01-17T06:54:42.342Z,100.00
2023-01-17T06:57:09.216Z,100.00
2023-01-17T06:59:36.206Z,100.00
2023-01-17T07:02:03.224Z,100.00
2023-01-17T07:04:30.264Z,100.00
2023-01-17T07:06:57.369Z,100.00
2023-01-17T07:09:24.443Z,100.00
2023-01-17T07:11:52.551Z,100.00
2023-01-17T07:14:19.368Z,100.00
2023-01-17T07:16:49.227Z,100.00
2023-01-17T07:19:16.148Z,100.00
2023-01-17T07:21:43.066Z,100.00
2023-01-17T07:24:10.406Z,100.00
2023-01-17T07:26:40.763Z,100.00
2023-01-17T07:29:07.719Z,100.00
2023-01-17T07:31:36.864Z,100.00
2023-01-17T07:34:04.246Z,100.00
2023-01-17T07:36:31.265Z,100.00
2023-01-17T07:38:58.169Z,100.00
2023-01-17T07:41:25.278Z,100.00
2023-01-17T07:43:52.202Z,100.00
2023-01-17T07:46:19.576Z,100.00
2023-01-17T07:48:46.412Z,100.00
2023-01-17T07:51:13.383Z,100.00
2023-01-17T07:53:41.632Z,100.00
2023-01-17T07:56:08.760Z,100.00
2023-01-17T07:58:36.346Z,100.00
2023-01-17T08:01:09.547Z,100.00
2023-01-17T08:03:40.097Z,100.00
2023-01-17T08:06:21.093Z,100.00
2023-01-17T08:08:48.298Z,100.00
2023-01-17T08:11:15.989Z,100.00
2023-01-17T08:13:42.946Z,100.00
2023-01-17T08:16:11.016Z,100.00
2023-01-17T08:18:38.039Z,99.87
2023-01-17T08:21:05.355Z,97.68
2023-01-17T08:23:32.269Z,97.08
2023-01-17T08:26:02.414Z,94.29
2023-01-17T08:28:29.429Z,93.55
2023-01-17T08:30:56.339Z,93.67
2023-01-17T08:33:23.240Z,94.69
2023-01-17T08:35:54.362Z,93.62
2023-01-17T08:38:23.972Z,93.72
2023-01-17T08:40:51.213Z,94.05
2023-01-17T08:43:18.256Z,93.18
2023-01-17T08:45:46.068Z,93.29
2023-01-17T08:48:13.138Z,93.31
2023-01-17T08:50:40.024Z,90.68
2023-01-17T08:53:07.043Z,91.37
2023-01-17T08:55:38.912Z,89.06
2023-01-17T08:58:05.745Z,88.97
2023-01-17T09:00:32.775Z,88.32
2023-01-17T09:02:59.713Z,88.62
2023-01-17T09:05:27.050Z,87.63
2023-01-17T09:07:55.704Z,86.90
2023-01-17T09:10:23.742Z,87.08
2023-01-17T09:12:50.791Z,86.44
2023-01-17T09:15:20.345Z,85.77
2023-01-17T09:17:47.918Z,84.68
2023-01-17T09:20:15.191Z,85.45
2023-01-17T09:22:42.149Z,85.09
2023-01-17T09:25:09.249Z,85.36
2023-01-17T09:27:36.426Z,84.65
2023-01-17T09:30:04.823Z,84.51
2023-01-17T09:32:31.846Z,84.66
2023-01-17T09:35:01.113Z,83.69
2023-01-17T09:37:28.135Z,83.83
2023-01-17T09:39:55.139Z,84.22
2023-01-17T09:42:33.590Z,84.65
2023-01-17T09:45:00.701Z,83.04
2023-01-17T09:47:43.637Z,83.21
2023-01-17T09:50:37.637Z,83.06
2023-01-17T09:53:12.645Z,83.49
2023-01-17T09:55:53.921Z,83.00
2023-01-17T09:58:27.837Z,82.29
2023-01-17T10:00:55.000Z,81.78
2023-01-17T10:03:47.000Z,81.06
2023-01-17T10:06:29.536Z,81.43
2023-01-17T10:09:03.862Z,81.96
2023-01-17T10:11:58.820Z,82.59
2023-01-17T10:15:03.242Z,80.99
2023-01-17T10:17:41.093Z,80.88
2023-01-17T10:20:49.639Z,80.12
2023-01-17T10:23:36.083Z,78.20
2023-01-17T10:26:15.126Z,78.62
2023-01-17T10:28:48.802Z,76.99
2023-01-17T10:31:27.319Z,77.60
2023-01-17T10:33:56.916Z,76.62
2023-01-17T10:36:38.950Z,76.34
2023-01-17T10:39:35.308Z,75.35
2023-01-17T10:42:22.098Z,76.04
2023-01-17T10:45:30.624Z,75.58
2023-01-17T10:48:09.858Z,76.37
2023-01-17T10:50:50.471Z,75.89
2023-01-17T10:53:41.758Z,74.48
2023-01-17T10:56:13.842Z,75.68
2023-01-17T10:58:40.822Z,76.38
2023-01-17T11:01:17.078Z,75.08
2023-01-17T11:03:48.929Z,73.71
2023-01-17T11:06:25.697Z,74.64
2023-01-17T11:08:55.048Z,73.05
2023-01-17T11:11:25.964Z,72.95
2023-01-17T11:13:55.686Z,72.78
2023-01-17T11:16:28.770Z,73.78
2023-01-17T11:19:23.746Z,72.81
2023-01-17T11:21:53.743Z,72.25
2023-01-17T11:25:03.973Z,72.85
2023-01-17T11:27:36.249Z,72.28
2023-01-17T11:30:15.993Z,72.86
2023-01-17T11:32:57.991Z,71.80
2023-01-17T11:35:44.230Z,71.26
2023-01-17T11:38:21.636Z,71.48
2023-01-17T11:40:49.834Z,71.89
2023-01-17T11:43:22.694Z,71.68
2023-01-17T11:46:13.765Z,70.86
2023-01-17T11:48:40.837Z,71.87
2023-01-17T11:51:25.015Z,71.81
2023-01-17T11:53:55.892Z,70.29
2023-01-17T11:56:37.162Z,69.10
2023-01-17T11:59:43.700Z,69.63
2023-01-17T12:02:35.806Z,67.16
2023-01-17T12:05:58.374Z,68.13
2023-01-17T12:08:44.208Z,68.33
2023-01-17T12:11:35.989Z,68.41
2023-01-17T12:14:21.432Z,69.49
2023-01-17T12:17:20.588Z,70.13
2023-01-17T12:19:54.361Z,70.55
2023-01-17T12:22:34.182Z,69.54
2023-01-17T12:25:22.937Z,70.04
2023-01-17T12:28:16.719Z,73.00
2023-01-17T12:31:14.552Z,74.66
2023-01-17T12:34:16.875Z,74.71
2023-01-17T12:37:04.398Z,74.43
2023-01-17T12:39:37.481Z,75.02
2023-01-17T12:42:24.179Z,74.88
2023-01-17T12:45:06.920Z,73.88
2023-01-17T12:47:41.837Z,73.77
2023-01-17T12:50:37.316Z,72.97
2023-01-17T12:53:41.696Z,73.11
2023-01-17T12:56:24.458Z,73.25
2023-01-17T12:59:33.073Z,73.62
2023-01-17T13:02:04.307Z,73.16
2023-01-17T13:04:58.121Z,73.69
2023-01-17T13:07:44.965Z,74.60
2023-01-17T13:10:33.659Z,75.21
2023-01-17T13:13:11.907Z,75.12
2023-01-17T13:15:40.674Z,75.47
2023-01-17T13:18:17.412Z,75.81
2023-01-17T13:21:06.242Z,75.38
2023-01-17T13:23:38.814Z,75.72
2023-01-17T13:26:20.914Z,75.80
2023-01-17T13:29:08.341Z,75.53
2023-01-17T13:31:49.644Z,76.06
2023-01-17T13:34:41.451Z,76.65
2023-01-17T13:37:32.651Z,77.08
2023-01-17T13:40:28.574Z,77.43
2023-01-17T13:43:00.282Z,77.65
2023-01-17T13:45:36.127Z,77.80
2023-01-17T13:48:12.274Z,77.72
2023-01-17T13:50:41.977Z,77.72
2023-01-17T13:53:37.155Z,78.19
2023-01-17T13:56:19.244Z,78.48
2023-01-17T13:58:50.263Z,79.43
2023-01-17T14:01:23.535Z,79.35
2023-01-17T14:03:50.502Z,80.35
2023-01-17T14:06:36.332Z,79.52
2023-01-17T14:09:26.775Z,80.22
2023-01-17T14:12:02.537Z,81.22
2023-01-17T14:14:44.575Z,80.97
2023-01-17T14:17:25.661Z,81.19
2023-01-17T14:19:57.771Z,81.45
2023-01-17T14:22:27.386Z,81.56
2023-01-17T14:25:10.053Z,81.79
2023-01-17T14:27:43.073Z,82.20
2023-01-17T14:30:32.830Z,82.65
2023-01-17T14:33:01.177Z,83.17
2023-01-17T14:35:32.849Z,83.38
2023-01-17T14:38:05.639Z,83.72
2023-01-17T14:40:34.454Z,83.81
2023-01-17T14:43:12.507Z,83.56
2023-01-17T14:45:41.282Z,83.33
2023-01-17T14:48:17.993Z,83.38
2023-01-17T14:50:46.899Z,83.68
2023-01-17T14:53:13.798Z,84.25
2023-01-17T14:55:56.546Z,84.07
2023-01-17T14:58:34.704Z,83.66
2023-01-17T15:01:03.183Z,83.58
2023-01-17T15:03:34.083Z,83.79
2023-01-17T15:06:11.494Z,84.04
2023-01-17T15:08:38.607Z,84.40
2023-01-17T15:11:10.602Z,84.73
2023-01-17T15:13:44.624Z,84.87
2023-01-17T15:16:26.091Z,84.54
2023-01-17T15:18:54.887Z,84.79
2023-01-17T15:21:25.547Z,84.78
2023-01-17T15:24:11.108Z,84.99
2023-01-17T15:26:43.275Z,84.64
2023-01-17T15:29:38.765Z,84.92
2023-01-17T15:32:07.518Z,85.78
2023-01-17T15:34:54.417Z,86.04
2023-01-17T15:40:24.101Z,87.03
2023-01-17T15:42:55.005Z,87.21
2023-01-17T15:45:28.869Z,87.01
2023-01-17T15:48:01.939Z,87.37
2023-01-17T15:50:32.916Z,88.07
2023-01-17T15:53:06.730Z,88.25
2023-01-17T15:55:39.444Z,88.74
2023-01-17T16:01:18.089Z,89.15
2023-01-17T16:03:59.081Z,89.14
2023-01-17T16:06:45.753Z,89.21
2023-01-17T16:09:23.632Z,88.94
2023-01-17T16:11:56.072Z,89.18
2023-01-17T16:14:23.269Z,88.90
2023-01-17T16:16:53.776Z,89.11
2023-01-17T16:19:21.865Z,89.43
2023-01-17T16:21:51.111Z,89.13
2023-01-17T16:24:18.702Z,88.65
2023-01-17T16:26:47.415Z,88.44
2023-01-17T16:29:14.691Z,88.76
2023-01-17T16:31:42.116Z,88.77
2023-01-17T16:34:12.533Z,88.94
2023-01-17T16:36:39.613Z,89.05
2023-01-17T16:39:10.162Z,89.24
2023-01-17T16:41:44.447Z,89.74
2023-01-17T16:44:12.484Z,89.65
2023-01-17T16:46:40.625Z,89.80
2023-01-17T16:49:08.578Z,90.08
2023-01-17T16:51:35.549Z,90.51
2023-01-17T16:54:02.605Z,90.96
2023-01-17T16:56:38.682Z,91.23
2023-01-17T16:59:05.694Z,91.34
2023-01-17T17:01:32.689Z,91.51
2023-01-17T17:03:59.768Z,91.58
2023-01-17T17:06:26.767Z,91.82
2023-01-17T17:08:53.738Z,92.05
2023-01-17T17:11:24.075Z,92.62
2023-01-17T17:13:52.004Z,93.20
2023-01-17T17:16:34.018Z,93.14
2023-01-17T17:19:03.726Z,93.80
2023-01-17T17:21:32.016Z,93.73
2023-01-17T17:24:00.928Z,93.67
2023-01-17T17:26:31.647Z,93.75
2023-01-17T17:28:58.670Z,93.92
2023-01-17T17:31:26.720Z,94.68
2023-01-17T17:33:57.509Z,94.48
2023-01-17T17:36:24.541Z,94.90
2023-01-17T17:38:54.659Z,95.21
2023-01-17T17:41:27.230Z,95.23
2023-01-17T17:43:54.991Z,95.38
2023-01-17T17:46:24.148Z,95.48
2023-01-17T17:48:51.055Z,95.55
2023-01-17T17:51:26.875Z,96.28
2023-01-17T17:53:56.749Z,96.88
2023-01-17T17:56:24.351Z,96.76
2023-01-17T17:58:51.820Z,96.72
2023-01-17T18:01:19.767Z,97.19
2023-01-17T18:03:46.678Z,97.70
2023-01-17T18:06:14.113Z,98.09
2023-01-17T18:08:41.315Z,98.70
2023-01-17T18:11:15.091Z,98.61
2023-01-17T18:13:43.179Z,98.98
2023-01-17T18:16:10.230Z,98.73
2023-01-17T18:18:39.892Z,98.78
2023-01-17T18:21:06.899Z,99.04
2023-01-17T18:23:33.797Z,99.05
2023-01-17T18:26:00.811Z,99.10
2023-01-17T18:28:27.939Z,99.02
2023-01-17T18:30:54.881Z,99.27
2023-01-17T18:33:21.904Z,99.07
2023-01-17T18:35:56.819Z,98.35
2023-01-17T18:38:28.874Z,98.72
2023-01-17T18:40:55.749Z,98.38
2023-01-17T18:43:26.066Z,98.01
2023-01-17T18:45:53.531Z,97.67
2023-01-17T18:48:20.474Z,97.24
2023-01-17T18:50:55.676Z,96.91
2023-01-17T18:53:22.652Z,96.74
2023-01-17T18:55:56.965Z,96.22
2023-01-17T18:58:25.276Z,95.86
2023-01-17T19:00:53.418Z,95.84
2023-01-17T19:03:25.524Z,95.96
2023-01-17T19:05:52.393Z,95.76
2023-01-17T19:08:19.786Z,95.59
2023-01-17T19:10:48.415Z,95.44
2023-01-17T19:13:15.382Z,95.31
2023-01-17T19:15:42.211Z,95.32
2023-01-17T19:18:09.115Z,95.59
2023-01-17T19:20:36.149Z,95.79
2023-01-17T19:23:03.245Z,96.02
2023-01-17T19:25:30.504Z,94.63
2023-01-17T19:27:58.349Z,93.61
2023-01-17T19:30:25.372Z,92.98
2023-01-17T19:32:52.979Z,92.29
2023-01-17T19:35:22.530Z,92.48
2023-01-17T19:37:55.043Z,91.79
2023-01-17T19:40:40.072Z,91.43
2023-01-17T19:43:08.294Z,91.36
2023-01-17T19:45:35.306Z,91.24
2023-01-17T19:48:02.265Z,91.05
2023-01-17T19:50:33.368Z,90.71
2023-01-17T19:53:03.389Z,90.42
2023-01-17T19:55:30.312Z,90.08
2023-01-17T19:57:57.810Z,90.94
2023-01-17T20:00:30.099Z,90.79
2023-01-17T20:02:57.374Z,90.28
2023-01-17T20:05:24.514Z,90.31
2023-01-17T20:07:51.376Z,90.67
2023-01-17T20:10:19.116Z,90.95
2023-01-17T20:12:47.128Z,90.59
2023-01-17T20:15:14.130Z,90.49
2023-01-17T20:17:41.044Z,90.83
2023-01-17T20:20:12.853Z,90.57
2023-01-17T20:22:46.126Z,90.11
2023-01-17T20:25:13.176Z,90.81
2023-01-17T20:27:44.532Z,91.44
2023-01-17T20:30:20.280Z,91.27
2023-01-17T20:32:47.916Z,91.55
2023-01-17T20:35:16.280Z,91.27
2023-01-17T20:37:43.414Z,90.53
2023-01-17T20:40:12.286Z,89.86
2023-01-17T20:42:39.521Z,89.93
2023-01-17T20:45:07.656Z,90.05
2023-01-17T20:47:34.763Z,89.77
2023-01-17T20:50:04.026Z,90.07
2023-01-17T20:52:31.040Z,90.00
2023-01-17T20:54:57.991Z,90.48
2023-01-17T20:57:25.043Z,90.47
2023-01-17T20:59:52.438Z,90.19
2023-01-17T21:02:19.495Z,90.15
2023-01-17T21:04:46.470Z,88.99
2023-01-17T21:07:13.480Z,88.21
2023-01-17T21:09:42.828Z,88.61
2023-01-17T21:12:09.801Z,89.10
2023-01-17T21:14:37.729Z,88.29
2023-01-17T21:17:07.466Z,88.81
2023-01-17T21:19:34.330Z,88.44
2023-01-17T21:22:01.557Z,88.36
2023-01-17T21:24:29.408Z,88.66
2023-01-17T21:26:57.008Z,88.23
2023-01-17T21:29:28.811Z,88.90
2023-01-17T21:31:56.339Z,88.95
2023-01-17T21:34:25.432Z,88.62
2023-01-17T21:36:52.570Z,88.87
2023-01-17T21:39:19.945Z,89.15
2023-01-17T21:41:49.705Z,89.22
2023-01-17T21:44:19.855Z,89.53
2023-01-17T21:46:47.711Z,89.90
2023-01-17T21:49:14.973Z,89.78
2023-01-17T21:51:55.298Z,90.06
2023-01-17T21:54:50.189Z,90.34
2023-01-17T21:57:38.581Z,90.73
2023-01-17T22:00:08.531Z,91.05
2023-01-17T22:02:38.625Z,91.77
2023-01-17T22:05:06.059Z,91.90
2023-01-17T22:07:33.567Z,92.56
2023-01-17T22:10:00.555Z,92.81
2023-01-17T22:12:27.461Z,92.78
2023-01-17T22:14:55.079Z,93.02
2023-01-17T22:17:22.270Z,92.74
2023-01-17T22:19:49.128Z,92.88
2023-01-17T22:22:16.134Z,92.04
2023-01-17T22:24:42.956Z,92.00
2023-01-17T22:27:09.975Z,91.74
2023-01-17T22:29:38.057Z,91.54
2023-01-17T22:32:05.710Z,92.03
2023-01-17T22:34:33.075Z,91.52
2023-01-17T22:37:00.586Z,91.71
2023-01-17T22:39:34.821Z,91.18
2023-01-17T22:42:01.693Z,91.38
2023-01-17T22:44:28.615Z,91.47
2023-01-17T22:46:55.539Z,91.57
2023-01-17T22:49:23.601Z,91.42
2023-01-17T22:51:51.041Z,91.39
2023-01-17T22:54:20.856Z,91.20
2023-01-17T22:56:48.859Z,90.94
2023-01-17T22:59:16.560Z,90.78
2023-01-17T23:01:43.496Z,90.60
2023-01-17T23:04:14.271Z,90.24
2023-01-17T23:06:42.651Z,89.54
2023-01-17T23:09:12.486Z,89.12
2023-01-17T23:11:41.227Z,87.82
2023-01-17T23:14:24.692Z,87.95
2023-01-17T23:17:21.647Z,87.76
2023-01-17T23:19:54.685Z,87.56
2023-01-17T23:22:27.041Z,87.59
2023-01-17T23:24:55.366Z,88.31
2023-01-17T23:27:49.955Z,87.95
2023-01-17T23:30:20.040Z,88.67
2023-01-17T23:32:52.164Z,89.29
2023-01-17T23:35:21.675Z,89.46
2023-01-17T23:38:07.681Z,89.61
2023-01-17T23:40:36.806Z,89.74
2023-01-17T23:43:23.241Z,90.02
2023-01-17T23:45:52.080Z,90.14
2023-01-17T23:48:19.686Z,90.11
2023-01-17T23:50:48.332Z,89.97
2023-01-17T23:53:23.070Z,90.13
2023-01-17T23:55:52.069Z,90.83
2023-01-17T23:58:20.890Z,90.76
